Time;durP1;ratioP1;P1;durP2;ratioP2;P2;SDS_P1;SDS_P2;PMS_P1;PMS_P2;Temp;Humidity;BMP_temperature;BMP_pressure;BME280_temperature;BME280_humidity;BME280_pressure;Samples;Min_cycle;Max_cycle;Signal;HPM_P1;HPM_P2
2021/12/29 00:00:47;;;;;;;14.80;6.75;;;-2.00;72.20;;;;;;5035328;28;20037;-44
2021/12/29 00:03:12;;;;;;;11.25;6.13;;;-2.10;72.20;;;;;;5035577;28;20330;-44
2021/12/29 00:05:38;;;;;;;12.45;6.30;;;-2.10;72.00;;;;;;5035511;28;20037;-44
2021/12/29 00:08:05;;;;;;;10.95;5.60;;;-2.10;72.00;;;;;;5035766;28;20025;-42
2021/12/29 00:10:32;;;;;;;11.57;6.20;;;-2.10;71.90;;;;;;5035458;28;20329;-44
2021/12/29 00:12:57;;;;;;;10.88;5.47;;;-2.10;72.10;;;;;;5036073;28;20025;-42
2021/12/29 00:15:26;;;;;;;12.90;6.32;;;-2.10;71.90;;;;;;5035580;28;20025;-42
2021/12/29 00:17:53;;;;;;;9.43;5.63;;;-2.10;71.90;;;;;;5038686;28;20029;-43
2021/12/29 00:20:22;;;;;;;14.20;6.50;;;-2.10;72.00;;;;;;5039836;28;20093;-42
2021/12/29 00:22:48;;;;;;;12.85;6.63;;;-2.10;72.00;;;;;;5039927;28;20376;-44
2021/12/29 00:25:14;;;;;;;11.77;6.43;;;-2.10;72.00;;;;;;5039657;28;20326;-45
2021/12/29 00:27:40;;;;;;;11.18;6.15;;;-2.10;72.00;;;;;;5039800;28;20029;-43
2021/12/29 00:30:09;;;;;;;15.68;6.70;;;-2.10;72.10;;;;;;5039458;28;20386;-44
2021/12/29 00:32:34;;;;;;;12.43;6.22;;;-2.10;72.20;;;;;;5039668;28;20053;-43
2021/12/29 00:35:00;;;;;;;11.75;6.65;;;-2.10;72.10;;;;;;5039504;28;20064;-42
2021/12/29 00:37:26;;;;;;;13.77;6.85;;;-2.10;72.00;;;;;;5039523;28;20026;-43
2021/12/29 00:39:52;;;;;;;11.38;6.05;;;-2.10;72.10;;;;;;5039415;28;20417;-45
2021/12/29 00:42:19;;;;;;;12.05;6.70;;;-2.10;72.10;;;;;;5039250;28;20029;-44
2021/12/29 00:44:45;;;;;;;15.40;6.60;;;-2.10;72.70;;;;;;5038677;28;20037;-45
2021/12/29 00:47:12;;;;;;;14.30;6.93;;;-2.10;72.20;;;;;;5039161;28;20109;-43
2021/12/29 00:49:38;;;;;;;14.57;6.15;;;-2.10;72.20;;;;;;5039119;28;20160;-42
2021/12/29 00:52:07;;;;;;;11.48;6.57;;;-2.10;72.30;;;;;;5039325;28;20037;-42
2021/12/29 00:54:34;;;;;;;13.93;7.00;;;-2.10;72.30;;;;;;5039100;28;20053;-43
2021/12/29 00:56:59;;;;;;;12.82;6.38;;;-2.00;72.30;;;;;;5038898;28;20053;-44
2021/12/29 00:59:26;;;;;;;11.88;6.20;;;-2.00;72.30;;;;;;5038793;28;20046;-44
2021/12/29 01:01:53;;;;;;;11.23;5.70;;;-2.00;72.30;;;;;;5039114;28;20021;-45
2021/12/29 01:04:20;;;;;;;10.45;6.15;;;-2.00;72.10;;;;;;5038991;28;20098;-43
2021/12/29 01:06:46;;;;;;;12.52;6.15;;;-2.00;72.10;;;;;;5038901;28;20378;-43
2021/12/29 01:09:12;;;;;;;13.95;6.95;;;-2.00;72.10;;;;;;5038600;28;20025;-42
2021/12/29 01:11:38;;;;;;;13.60;6.20;;;-2.00;72.00;;;;;;5038497;28;20060;-45
2021/12/29 01:14:04;;;;;;;11.73;6.07;;;-2.00;72.10;;;;;;5038504;28;20022;-45
2021/12/29 01:19:10;;;;;;;12.50;6.40;;;-2.00;72.00;;;;;;5038599;28;20072;-43
2021/12/29 01:21:37;;;;;;;11.85;6.20;;;-2.00;72.10;;;;;;5038566;28;20487;-43
2021/12/29 01:24:05;;;;;;;10.00;5.93;;;-2.00;72.10;;;;;;5038553;28;20033;-44
2021/12/29 01:26:31;;;;;;;14.10;6.35;;;-2.00;72.00;;;;;;5038737;28;20033;-44
2021/12/29 01:28:56;;;;;;;15.10;7.05;;;-2.00;71.90;;;;;;5037792;28;20088;-42
2021/12/29 01:31:22;;;;;;;13.05;6.40;;;-2.00;72.00;;;;;;5038412;28;20036;-43
2021/12/29 01:33:48;;;;;;;11.40;6.57;;;-2.00;72.10;;;;;;5038304;28;20390;-44
2021/12/29 01:36:13;;;;;;;13.15;7.05;;;-2.10;72.00;;;;;;5037905;28;20120;-43
2021/12/29 01:38:39;;;;;;;13.48;7.47;;;-2.10;72.00;;;;;;5038211;28;20081;-44
2021/12/29 01:41:05;;;;;;;17.52;6.57;;;-2.10;72.20;;;;;;5037971;28;20030;-43
2021/12/29 01:43:31;;;;;;;13.65;7.30;;;-2.10;72.40;;;;;;5038201;28;20044;-43
2021/12/29 01:45:56;;;;;;;14.10;6.88;;;-2.10;72.30;;;;;;5037743;28;20082;-44
2021/12/29 01:48:22;;;;;;;19.25;6.53;;;-2.10;72.50;;;;;;5038092;28;20037;-46
2021/12/29 01:50:51;;;;;;;13.38;7.20;;;-2.10;72.50;;;;;;5037765;28;20030;-42
2021/12/29 01:53:28;;;;;;;13.38;6.82;;;-2.10;72.70;;;;;;5037881;28;20029;-42
2021/12/29 01:55:54;;;;;;;15.13;7.40;;;-2.10;72.80;;;;;;5037511;28;20056;-44
2021/12/29 01:58:20;;;;;;;13.73;7.28;;;-2.10;72.90;;;;;;5038124;28;20045;-43
2021/12/29 02:00:47;;;;;;;13.60;6.88;;;-2.10;72.80;;;;;;5037544;28;20047;-45
2021/12/29 02:03:13;;;;;;;12.55;6.65;;;-2.10;72.90;;;;;;5038026;28;20116;-43
2021/12/29 02:05:41;;;;;;;12.93;7.15;;;-2.10;72.90;;;;;;5037705;28;20355;-43
2021/12/29 02:08:08;;;;;;;15.82;7.03;;;-2.10;72.90;;;;;;5037433;28;20464;-45
2021/12/29 02:10:42;;;;;;;14.10;7.50;;;-2.10;72.70;;;;;;5037401;28;20037;-45
2021/12/29 02:13:11;;;;;;;12.70;6.85;;;-2.10;72.60;;;;;;5037483;28;20033;-43
2021/12/29 02:15:37;;;;;;;13.63;7.00;;;-2.10;72.60;;;;;;5037327;28;20052;-43
2021/12/29 02:18:11;;;;;;;11.65;6.63;;;-2.10;72.80;;;;;;5037238;28;20028;-44
2021/12/29 02:20:37;;;;;;;15.43;7.30;;;-2.10;73.00;;;;;;5037491;28;20037;-42
2021/12/29 02:23:13;;;;;;;15.10;8.00;;;-2.10;73.00;;;;;;5037730;28;20410;-42
2021/12/29 02:25:48;;;;;;;14.70;7.55;;;-2.10;73.00;;;;;;5037403;28;20325;-42
2021/12/29 02:28:16;;;;;;;11.43;6.97;;;-2.10;73.10;;;;;;5037162;28;20033;-42
2021/12/29 02:30:42;;;;;;;11.68;6.63;;;-2.10;73.20;;;;;;5036983;28;20040;-44
2021/12/29 02:33:13;;;;;;;17.48;7.13;;;-2.10;73.20;;;;;;5037094;28;20413;-44
2021/12/29 02:35:39;;;;;;;13.98;7.07;;;-2.20;73.20;;;;;;5037190;28;20406;-44
2021/12/29 02:38:09;;;;;;;12.93;6.88;;;-2.20;73.20;;;;;;5037260;28;20360;-46
2021/12/29 02:40:35;;;;;;;13.63;7.35;;;-2.20;73.90;;;;;;5035725;28;20075;-44
2021/12/29 02:43:01;;;;;;;13.55;7.18;;;-2.20;73.50;;;;;;5036903;28;20083;-43
2021/12/29 02:45:29;;;;;;;13.82;6.97;;;-2.20;73.60;;;;;;5036811;28;20345;-46
2021/12/29 02:47:55;;;;;;;12.93;6.80;;;-2.20;73.60;;;;;;5036660;28;20034;-43
2021/12/29 02:50:21;;;;;;;14.20;7.40;;;-2.20;73.70;;;;;;5036698;28;20043;-46
2021/12/29 02:52:47;;;;;;;12.73;6.85;;;-2.20;73.80;;;;;;5036748;28;20100;-42
2021/12/29 02:55:14;;;;;;;11.68;6.70;;;-2.20;73.90;;;;;;5036560;28;20045;-44
2021/12/29 02:57:40;;;;;;;13.98;7.43;;;-2.20;74.00;;;;;;5036892;28;20325;-43
2021/12/29 03:00:10;;;;;;;16.17;8.57;;;-2.20;74.00;;;;;;5036810;28;20045;-45
2021/12/29 03:02:36;;;;;;;13.57;7.25;;;-2.20;73.80;;;;;;5036612;28;20029;-44
2021/12/29 03:05:02;;;;;;;18.10;7.53;;;-2.20;74.00;;;;;;5036669;28;20042;-44
2021/12/29 03:07:28;;;;;;;13.35;7.22;;;-2.30;74.00;;;;;;5036451;28;20119;-46
2021/12/29 03:09:53;;;;;;;12.05;7.20;;;-2.30;74.10;;;;;;5036313;28;20117;-43
2021/12/29 03:12:19;;;;;;;12.88;6.95;;;-2.30;74.10;;;;;;5036398;28;20049;-44
2021/12/29 03:14:53;;;;;;;17.17;7.45;;;-2.30;74.20;;;;;;5036405;28;20156;-42
2021/12/29 03:17:19;;;;;;;14.18;7.55;;;-2.30;74.30;;;;;;5036430;28;20116;-44
2021/12/29 03:19:45;;;;;;;14.00;7.60;;;-2.30;74.20;;;;;;5036390;28;20042;-45
2021/12/29 03:22:11;;;;;;;13.68;7.28;;;-2.30;74.30;;;;;;5036205;28;20032;-45
2021/12/29 03:24:37;;;;;;;15.75;7.93;;;-2.30;74.30;;;;;;5036269;28;20033;-42
2021/12/29 03:27:02;;;;;;;16.95;7.97;;;-2.30;74.40;;;;;;5036272;28;20026;-44
2021/12/29 03:29:28;;;;;;;15.70;8.25;;;-2.30;74.60;;;;;;5035628;28;20047;-43
2021/12/29 03:31:54;;;;;;;17.75;7.78;;;-2.30;74.70;;;;;;5035850;28;20029;-44
2021/12/29 03:34:19;;;;;;;17.02;8.25;;;-2.30;74.80;;;;;;5035875;28;20437;-43
2021/12/29 03:36:45;;;;;;;24.67;10.90;;;-2.20;74.80;;;;;;5036092;28;20096;-43
2021/12/29 03:39:11;;;;;;;22.15;9.15;;;-2.20;74.80;;;;;;5035678;28;20037;-45
2021/12/29 03:41:36;;;;;;;14.82;7.90;;;-2.20;74.80;;;;;;5036057;28;20029;-45
2021/12/29 03:44:02;;;;;;;13.40;6.57;;;-2.20;74.70;;;;;;5035802;28;20103;-42
2021/12/29 03:46:28;;;;;;;13.23;6.90;;;-2.20;74.50;;;;;;5035896;28;20036;-42
2021/12/29 03:48:54;;;;;;;11.57;7.63;;;-2.20;74.50;;;;;;5035891;28;20484;-43
2021/12/29 03:51:20;;;;;;;15.05;7.60;;;-2.20;74.50;;;;;;5035678;28;20501;-42
2021/12/29 03:53:46;;;;;;;12.65;6.78;;;-2.20;74.60;;;;;;5036021;28;20053;-42
2021/12/29 03:56:12;;;;;;;13.02;7.70;;;-2.20;74.60;;;;;;5035401;28;20407;-43
2021/12/29 03:58:38;;;;;;;12.80;7.13;;;-2.20;74.60;;;;;;5036064;28;20326;-44
2021/12/29 04:01:10;;;;;;;12.98;7.70;;;-2.20;74.70;;;;;;5035601;28;20026;-44
2021/12/29 04:03:36;;;;;;;15.27;7.22;;;-2.20;74.60;;;;;;5036138;28;20042;-42
2021/12/29 04:06:01;;;;;;;13.95;7.32;;;-2.20;74.60;;;;;;5035591;28;20314;-43
2021/12/29 04:08:27;;;;;;;14.80;7.63;;;-2.20;74.70;;;;;;5035769;28;20037;-44
2021/12/29 04:10:53;;;;;;;13.40;7.22;;;-2.20;74.70;;;;;;5035120;28;20021;-43
2021/12/29 04:13:18;;;;;;;12.32;6.90;;;-2.20;74.70;;;;;;5035968;28;20083;-42
2021/12/29 04:15:45;;;;;;;11.52;6.53;;;-2.30;74.70;;;;;;5035442;28;20028;-43
2021/12/29 04:18:55;;;;;;;11.82;6.68;;;-2.30;74.80;;;;;;5035569;28;20026;-43
2021/12/29 04:21:03;;;;;;;12.38;7.13;;;-2.30;74.90;;;;;;5035987;28;20033;-44
2021/12/29 04:23:37;;;;;;;14.15;7.13;;;-2.30;74.90;;;;;;5035997;28;20048;-43
2021/12/29 04:26:05;;;;;;;16.08;8.48;;;-2.30;74.80;;;;;;5035549;28;20025;-43
2021/12/29 04:28:32;;;;;;;15.02;8.15;;;-2.30;74.90;;;;;;5035806;28;20038;-42
2021/12/29 04:31:07;;;;;;;18.38;7.32;;;-2.30;74.90;;;;;;5035218;28;20435;-42
2021/12/29 04:33:33;;;;;;;13.45;7.38;;;-2.30;75.00;;;;;;5035220;28;20116;-43
2021/12/29 04:35:59;;;;;;;13.48;7.15;;;-2.30;75.00;;;;;;5034869;28;20051;-43
2021/12/29 04:38:25;;;;;;;15.25;7.03;;;-2.30;75.00;;;;;;5035259;28;20034;-45
2021/12/29 04:40:53;;;;;;;10.85;6.47;;;-2.30;75.50;;;;;;5035298;28;20108;-43
2021/12/29 04:43:19;;;;;;;14.25;7.22;;;-2.30;74.90;;;;;;5035606;28;20053;-44
2021/12/29 04:45:45;;;;;;;17.73;8.25;;;-2.30;74.90;;;;;;5035387;28;20121;-43
2021/12/29 04:48:13;;;;;;;14.50;7.07;;;-2.30;75.10;;;;;;5035134;28;20037;-45
2021/12/29 04:50:42;;;;;;;13.05;6.75;;;-2.30;75.00;;;;;;5035112;28;20420;-43
2021/12/29 04:53:09;;;;;;;18.33;7.47;;;-2.30;74.90;;;;;;5035108;28;20021;-45
2021/12/29 04:55:35;;;;;;;20.02;7.18;;;-2.30;75.00;;;;;;5034970;28;20453;-43
2021/12/29 04:58:01;;;;;;;11.93;7.03;;;-2.30;74.90;;;;;;5035314;28;20021;-44
2021/12/29 05:00:29;;;;;;;12.65;7.28;;;-2.30;74.90;;;;;;5034838;28;20075;-42
2021/12/29 05:02:56;;;;;;;13.57;7.72;;;-2.20;75.10;;;;;;5036447;28;20026;-45
2021/12/29 05:10:46;;;;;;;18.17;8.60;;;-2.20;74.90;;;;;;5038187;28;20040;-44
2021/12/29 05:13:12;;;;;;;14.30;7.72;;;-2.30;74.90;;;;;;5038621;28;20484;-45
2021/12/29 05:15:38;;;;;;;13.52;7.55;;;-2.30;75.00;;;;;;5037231;28;20056;-43
2021/12/29 05:18:03;;;;;;;20.95;8.98;;;-2.30;75.20;;;;;;5038419;28;20071;-43
2021/12/29 05:20:30;;;;;;;17.92;8.70;;;-2.20;75.20;;;;;;5038427;28;20029;-44
2021/12/29 05:22:58;;;;;;;15.90;8.52;;;-2.20;75.30;;;;;;5038545;28;20029;-44
2021/12/29 05:25:24;;;;;;;16.15;8.27;;;-2.10;75.30;;;;;;5037976;28;20069;-43
2021/12/29 05:27:50;;;;;;;17.73;8.45;;;-2.10;75.20;;;;;;5038600;28;20033;-44
2021/12/29 05:30:16;;;;;;;16.55;8.60;;;-2.10;75.10;;;;;;5037921;28;20088;-44
2021/12/29 05:32:42;;;;;;;15.40;7.78;;;-2.10;74.90;;;;;;5038419;28;20101;-43
2021/12/29 05:35:08;;;;;;;18.58;8.77;;;-2.00;74.90;;;;;;5038186;28;20025;-45
2021/12/29 05:37:34;;;;;;;16.88;8.73;;;-2.00;74.70;;;;;;5037959;28;20117;-46
2021/12/29 05:40:00;;;;;;;14.40;7.13;;;-2.00;74.60;;;;;;5038048;28;20120;-43
2021/12/29 05:42:26;;;;;;;20.55;10.25;;;-2.00;74.30;;;;;;5037780;28;20037;-45
2021/12/29 05:44:51;;;;;;;16.95;8.73;;;-2.00;74.30;;;;;;5037405;28;20304;-45
2021/12/29 05:47:17;;;;;;;21.90;10.60;;;-2.00;74.20;;;;;;5038024;28;20026;-44
2021/12/29 05:49:43;;;;;;;17.52;9.13;;;-2.10;74.10;;;;;;5037805;28;20368;-44
2021/12/29 05:52:10;;;;;;;22.98;10.93;;;-2.10;74.40;;;;;;5037966;28;20025;-45
2021/12/29 05:54:36;;;;;;;20.00;9.82;;;-2.10;74.40;;;;;;5037793;28;20108;-46
2021/12/29 05:57:02;;;;;;;15.75;8.40;;;-2.10;74.40;;;;;;5037581;28;20037;-42
2021/12/29 05:59:28;;;;;;;16.30;8.43;;;-2.10;74.30;;;;;;5037481;28;20037;-44
2021/12/29 06:01:53;;;;;;;22.48;10.32;;;-2.10;74.40;;;;;;5037636;28;20044;-43
2021/12/29 06:04:19;;;;;;;20.35;10.18;;;-2.10;74.40;;;;;;5037420;28;20065;-44
2021/12/29 06:06:44;;;;;;;19.77;8.98;;;-2.10;74.30;;;;;;5037726;28;20364;-43
2021/12/29 06:09:10;;;;;;;16.90;9.50;;;-2.00;74.50;;;;;;5037296;28;20380;-45
2021/12/29 06:11:36;;;;;;;14.80;8.05;;;-2.00;75.10;;;;;;5037194;28;20324;-43
2021/12/29 06:14:01;;;;;;;13.27;7.88;;;-2.00;74.60;;;;;;5037149;28;20384;-45
2021/12/29 06:16:27;;;;;;;18.65;9.38;;;-2.00;74.40;;;;;;5037390;28;20106;-44
2021/12/29 06:18:54;;;;;;;14.77;7.70;;;-2.00;74.30;;;;;;5036951;28;20040;-45
2021/12/29 06:21:19;;;;;;;14.70;7.78;;;-2.00;74.10;;;;;;5035995;28;20076;-48
2021/12/29 06:23:46;;;;;;;17.15;8.32;;;-1.90;74.20;;;;;;5037129;28;20034;-43
2021/12/29 06:26:13;;;;;;;12.85;7.32;;;-1.90;74.20;;;;;;5036874;28;20100;-44
2021/12/29 06:28:39;;;;;;;17.35;7.82;;;-1.90;74.70;;;;;;5036733;28;20441;-44
2021/12/29 06:31:05;;;;;;;13.23;6.78;;;-2.00;74.20;;;;;;5037035;28;20068;-43
2021/12/29 06:33:30;;;;;;;14.95;7.57;;;-2.00;74.00;;;;;;5037298;28;20057;-44
2021/12/29 06:35:56;;;;;;;17.02;9.27;;;-2.00;74.10;;;;;;5036870;28;20049;-44
2021/12/29 06:38:22;;;;;;;15.43;8.55;;;-2.00;74.20;;;;;;5036714;28;20029;-46
2021/12/29 06:40:48;;;;;;;16.17;8.25;;;-2.00;74.00;;;;;;5036300;28;20036;-45
2021/12/29 06:43:13;;;;;;;17.30;8.82;;;-2.00;74.00;;;;;;5036610;28;20029;-43
2021/12/29 06:45:39;;;;;;;16.77;8.73;;;-2.00;73.90;;;;;;5036141;28;20132;-43
2021/12/29 06:48:05;;;;;;;17.65;8.20;;;-2.00;73.80;;;;;;5036643;28;20025;-45
2021/12/29 06:50:31;;;;;;;17.95;8.35;;;-2.00;73.90;;;;;;5036333;28;20033;-43
2021/12/29 06:52:57;;;;;;;16.75;9.35;;;-2.00;73.80;;;;;;5036829;28;20032;-43
2021/12/29 06:55:22;;;;;;;19.48;10.25;;;-2.00;73.80;;;;;;5036270;28;20045;-43
2021/12/29 06:57:48;;;;;;;15.98;8.85;;;-2.00;73.70;;;;;;5036715;28;20417;-48
2021/12/29 07:00:14;;;;;;;18.17;8.82;;;-2.00;73.70;;;;;;5036559;28;20045;-43
2021/12/29 07:02:40;;;;;;;15.07;8.38;;;-2.00;73.70;;;;;;5036580;28;20044;-44
2021/12/29 07:05:06;;;;;;;16.58;8.85;;;-2.00;73.60;;;;;;5036538;28;20041;-44
2021/12/29 07:07:32;;;;;;;15.63;8.93;;;-2.00;73.70;;;;;;5036330;28;20118;-43
2021/12/29 07:09:57;;;;;;;19.60;10.02;;;-2.00;73.90;;;;;;5036148;28;20129;-46
2021/12/29 07:12:23;;;;;;;16.77;9.18;;;-1.90;73.90;;;;;;5036295;28;20025;-42
2021/12/29 07:14:49;;;;;;;11.45;7.25;;;-1.90;74.00;;;;;;5036557;28;20041;-43
2021/12/29 07:17:15;;;;;;;15.77;8.25;;;-1.90;73.70;;;;;;5036254;28;20021;-44
2021/12/29 07:19:40;;;;;;;16.05;8.90;;;-1.90;73.70;;;;;;5036254;28;20206;-45
2021/12/29 07:22:07;;;;;;;16.17;8.50;;;-2.00;73.70;;;;;;5036315;28;20029;-45
2021/12/29 07:24:33;;;;;;;16.65;8.45;;;-1.90;73.90;;;;;;5035784;28;20038;-45
2021/12/29 07:27:00;;;;;;;13.63;7.35;;;-1.90;74.00;;;;;;5035423;28;20033;-42
2021/12/29 07:29:27;;;;;;;17.98;9.90;;;-1.90;73.90;;;;;;5035786;28;20037;-44
2021/12/29 07:31:53;;;;;;;16.17;9.65;;;-1.80;74.00;;;;;;5035559;28;20033;-43
2021/12/29 07:34:20;;;;;;;17.02;8.43;;;-1.80;73.80;;;;;;5035780;28;20033;-42
2021/12/29 07:36:46;;;;;;;14.90;8.00;;;-1.70;73.80;;;;;;5036320;28;20036;-42
2021/12/29 07:39:14;;;;;;;14.50;8.05;;;-1.70;73.60;;;;;;5035603;28;20034;-49
2021/12/29 07:41:40;;;;;;;17.83;8.07;;;-1.70;74.10;;;;;;5036007;28;20041;-43
2021/12/29 07:44:07;;;;;;;16.23;8.07;;;-1.70;73.40;;;;;;5035766;28;20425;-47
2021/12/29 07:46:34;;;;;;;15.43;8.35;;;-1.70;73.30;;;;;;5035907;28;20307;-45
2021/12/29 07:49:03;;;;;;;20.17;8.70;;;-1.70;73.10;;;;;;5035629;28;20115;-43
2021/12/29 07:51:30;;;;;;;14.80;8.43;;;-1.70;73.20;;;;;;5035485;28;20036;-47
2021/12/29 07:53:56;;;;;;;14.55;8.52;;;-1.70;73.20;;;;;;5035438;28;20026;-43
2021/12/29 07:56:22;;;;;;;20.33;9.35;;;-1.70;73.30;;;;;;5035429;28;20452;-45
2021/12/29 07:58:48;;;;;;;17.13;8.98;;;-1.70;73.30;;;;;;5035666;28;20030;-43
2021/12/29 08:01:14;;;;;;;19.02;8.55;;;-1.70;73.30;;;;;;5035993;28;20025;-44
2021/12/29 08:03:40;;;;;;;15.00;9.20;;;-1.70;73.40;;;;;;5035544;28;20313;-45
2021/12/29 08:06:06;;;;;;;18.77;8.93;;;-1.70;73.50;;;;;;5035597;28;20060;-45
2021/12/29 08:08:32;;;;;;;18.15;8.50;;;-1.70;73.60;;;;;;5035570;28;20299;-42
2021/12/29 08:10:58;;;;;;;20.58;8.13;;;-1.60;73.60;;;;;;5034654;28;20021;-45
2021/12/29 08:13:23;;;;;;;13.75;7.85;;;-1.60;73.30;;;;;;5035646;28;20033;-43
2021/12/29 08:15:49;;;;;;;15.77;9.15;;;-1.60;73.20;;;;;;5035321;28;20330;-46
2021/12/29 08:18:15;;;;;;;16.48;8.75;;;-1.60;73.10;;;;;;5035443;28;20030;-44
2021/12/29 08:20:41;;;;;;;17.67;9.95;;;-1.60;73.00;;;;;;5035174;28;20033;-47
2021/12/29 08:23:08;;;;;;;15.65;7.47;;;-1.60;73.00;;;;;;5035780;28;20026;-45
2021/12/29 08:25:35;;;;;;;13.20;7.38;;;-1.60;72.80;;;;;;5035370;28;20398;-46
2021/12/29 08:28:01;;;;;;;15.18;8.20;;;-1.60;72.80;;;;;;5035417;28;20032;-43
2021/12/29 08:30:27;;;;;;;18.08;10.70;;;-1.60;72.80;;;;;;5034950;28;20029;-45
2021/12/29 08:32:53;;;;;;;20.92;9.07;;;-1.60;72.90;;;;;;5035271;28;20410;-44
2021/12/29 08:35:19;;;;;;;18.67;8.52;;;-1.50;72.90;;;;;;5035480;28;20041;-43
2021/12/29 08:37:45;;;;;;;24.08;11.73;;;-1.50;72.90;;;;;;5036321;28;20025;-42
2021/12/29 08:40:11;;;;;;;23.33;12.48;;;-1.50;73.00;;;;;;5039158;28;20039;-41
2021/12/29 08:42:38;;;;;;;17.38;10.80;;;-1.40;73.10;;;;;;5039116;28;20052;-44
2021/12/29 08:45:06;;;;;;;20.38;9.50;;;-1.40;73.10;;;;;;5038783;28;20072;-41
2021/12/29 08:47:32;;;;;;;17.73;8.85;;;-1.30;73.20;;;;;;5046161;28;20029;-43
2021/12/29 08:49:58;;;;;;;18.15;9.25;;;-1.30;72.90;;;;;;5058658;28;20039;-45
2021/12/29 08:52:23;;;;;;;15.50;8.68;;;-1.30;72.80;;;;;;5058462;28;20021;-42
2021/12/29 08:54:49;;;;;;;17.45;8.27;;;-1.30;73.00;;;;;;5058363;28;20099;-45
2021/12/29 08:57:15;;;;;;;15.13;7.78;;;-1.30;72.70;;;;;;5058749;28;20044;-42
2021/12/29 08:59:41;;;;;;;17.88;8.50;;;-1.30;72.50;;;;;;5058443;28;20041;-42
2021/12/29 09:02:06;;;;;;;15.30;7.93;;;-1.30;72.50;;;;;;5058514;28;20021;-46
2021/12/29 09:04:32;;;;;;;19.35;8.50;;;-1.30;72.40;;;;;;5058370;28;20183;-42
2021/12/29 09:06:57;;;;;;;19.40;9.68;;;-1.30;72.30;;;;;;5057839;28;20120;-41
2021/12/29 09:09:23;;;;;;;16.55;9.43;;;-1.30;72.30;;;;;;5058299;28;20033;-43
2021/12/29 09:11:49;;;;;;;16.63;8.45;;;-1.30;72.40;;;;;;5057725;28;20409;-45
2021/12/29 09:14:15;;;;;;;20.73;11.48;;;-1.30;72.30;;;;;;5058361;28;20029;-43
2021/12/29 09:16:41;;;;;;;19.35;10.02;;;-1.30;72.50;;;;;;5058353;28;20029;-45
2021/12/29 09:19:11;;;;;;;26.83;13.15;;;-1.30;72.50;;;;;;5058144;28;20334;-46
2021/12/29 09:21:39;;;;;;;21.80;10.38;;;-1.30;72.40;;;;;;5058209;28;20104;-44
2021/12/29 09:24:05;;;;;;;27.65;14.15;;;-1.30;72.40;;;;;;5058071;28;20042;-45
2021/12/29 09:26:31;;;;;;;26.98;12.98;;;-1.30;72.30;;;;;;5057909;28;20049;-44
2021/12/29 09:28:57;;;;;;;27.10;12.05;;;-1.30;72.30;;;;;;5058053;28;20384;-45
2021/12/29 09:31:24;;;;;;;23.55;12.35;;;-1.30;72.60;;;;;;5057661;28;20029;-46
2021/12/29 09:33:50;;;;;;;30.08;14.48;;;-1.30;72.80;;;;;;5057897;28;20044;-44
2021/12/29 09:36:16;;;;;;;31.13;15.68;;;-1.20;72.70;;;;;;5057703;28;20402;-45
2021/12/29 09:38:42;;;;;;;27.40;12.38;;;-1.20;72.50;;;;;;5057903;28;20029;-42
2021/12/29 09:41:14;;;;;;;23.92;11.30;;;-1.20;72.60;;;;;;5058011;28;20382;-44
2021/12/29 09:43:42;;;;;;;37.17;18.88;;;-1.20;72.60;;;;;;5057636;28;20405;-44
2021/12/29 09:46:08;;;;;;;18.88;10.23;;;-1.20;72.60;;;;;;5057848;28;20357;-42
2021/12/29 09:48:35;;;;;;;22.30;12.15;;;-1.20;72.20;;;;;;5057524;28;20119;-45
2021/12/29 09:51:11;;;;;;;21.77;11.98;;;-1.10;72.20;;;;;;5057274;28;20025;-43
2021/12/29 09:53:37;;;;;;;25.58;12.50;;;-1.10;72.30;;;;;;5057648;28;20032;-46
2021/12/29 09:56:03;;;;;;;21.77;10.60;;;-1.10;72.20;;;;;;5054721;28;20075;-43
2021/12/29 09:58:29;;;;;;;25.75;12.65;;;-1.10;72.20;;;;;;5057812;28;20025;-45
2021/12/29 10:00:59;;;;;;;19.48;10.93;;;-1.10;72.20;;;;;;5057215;28;20024;-43
2021/12/29 10:03:27;;;;;;;23.42;10.35;;;-1.10;72.10;;;;;;5057516;28;20060;-48
2021/12/29 10:05:56;;;;;;;20.85;10.05;;;-1.10;72.00;;;;;;5056783;28;20127;-45
2021/12/29 10:08:25;;;;;;;24.92;12.32;;;-1.10;71.80;;;;;;5057069;28;20116;-42
2021/12/29 10:11:12;;;;;;;43.33;20.73;;;-1.10;71.80;;;;;;5056583;28;20448;-45
2021/12/29 10:13:41;;;;;;;18.65;11.02;;;-1.10;71.70;;;;;;5057395;28;20037;-44
2021/12/29 10:16:11;;;;;;;20.77;10.40;;;-1.10;71.50;;;;;;5056697;28;20036;-43
2021/12/29 10:18:40;;;;;;;23.17;10.98;;;-1.10;71.20;;;;;;5056802;28;20033;-44
2021/12/29 10:21:13;;;;;;;22.17;11.13;;;-1.10;71.30;;;;;;5056950;28;20364;-47
2021/12/29 10:23:42;;;;;;;29.77;12.50;;;-1.20;71.40;;;;;;5056772;28;20037;-43
2021/12/29 10:26:15;;;;;;;31.20;13.52;;;-1.20;71.70;;;;;;5056864;28;20025;-42
2021/12/29 10:28:44;;;;;;;23.15;12.32;;;-1.10;72.00;;;;;;5056921;28;20413;-43
2021/12/29 10:31:22;;;;;;;23.38;11.93;;;-1.10;72.20;;;;;;5056433;28;20306;-47
2021/12/29 10:33:51;;;;;;;31.27;13.93;;;-1.10;72.30;;;;;;5056392;28;20098;-45
2021/12/29 10:36:21;;;;;;;21.52;11.65;;;-1.10;72.20;;;;;;5056494;28;20060;-45
2021/12/29 10:39:11;;;;;;;28.98;13.55;;;-1.00;72.10;;;;;;5056989;28;20033;-47
2021/12/29 10:41:46;;;;;;;26.17;12.10;;;-1.10;71.90;;;;;;5056675;28;20044;-45
2021/12/29 10:44:13;;;;;;;20.80;10.20;;;-1.10;72.00;;;;;;5056337;28;20032;-42
2021/12/29 10:46:39;;;;;;;37.33;15.40;;;-1.10;72.00;;;;;;5056884;28;20087;-46
2021/12/29 10:49:07;;;;;;;30.13;15.15;;;-1.10;72.10;;;;;;5056513;28;20040;-44
2021/12/29 10:51:36;;;;;;;23.38;11.38;;;-1.10;72.10;;;;;;5056273;28;20033;-44
2021/12/29 10:54:05;;;;;;;16.27;8.98;;;-1.10;72.10;;;;;;5056331;28;20097;-44
2021/12/29 10:56:32;;;;;;;19.83;9.63;;;-1.10;71.90;;;;;;5056174;28;20056;-44
2021/12/29 10:58:58;;;;;;;18.10;9.30;;;-1.10;71.80;;;;;;5056329;28;20429;-43
2021/12/29 11:01:24;;;;;;;19.65;9.05;;;-1.10;71.70;;;;;;5055631;28;20029;-44
2021/12/29 11:03:53;;;;;;;19.27;8.98;;;-1.10;71.60;;;;;;5055666;28;20041;-44
2021/12/29 11:06:21;;;;;;;18.95;9.48;;;-1.20;71.60;;;;;;5055746;28;20040;-45
2021/12/29 11:08:46;;;;;;;16.30;9.00;;;-1.20;72.20;;;;;;5055924;28;20410;-45
2021/12/29 11:11:13;;;;;;;21.88;10.18;;;-1.20;71.60;;;;;;5055631;28;20025;-49
2021/12/29 11:13:38;;;;;;;20.08;10.68;;;-1.20;71.70;;;;;;5056181;28;20041;-45
2021/12/29 11:16:05;;;;;;;15.15;8.07;;;-1.20;72.00;;;;;;5056003;28;20295;-44
2021/12/29 11:18:50;;;;;;;21.08;10.63;;;-1.10;72.10;;;;;;5055958;28;20057;-45
2021/12/29 11:21:23;;;;;;;23.77;10.77;;;-1.00;72.10;;;;;;5056093;28;20125;-44
2021/12/29 11:23:50;;;;;;;21.63;11.32;;;-1.00;72.00;;;;;;5055846;28;20049;-47
2021/12/29 11:26:15;;;;;;;23.23;11.00;;;-1.00;71.80;;;;;;5055546;28;20033;-45
2021/12/29 11:28:41;;;;;;;19.13;8.70;;;-1.00;71.80;;;;;;5055784;28;20475;-44
2021/12/29 11:31:09;;;;;;;15.68;8.93;;;-1.00;71.70;;;;;;5055570;28;20426;-46
2021/12/29 11:33:35;;;;;;;14.40;7.88;;;-1.00;71.50;;;;;;5055877;28;20086;-42
2021/12/29 11:36:03;;;;;;;17.45;9.18;;;-1.00;71.30;;;;;;5055208;28;20029;-44
2021/12/29 11:38:29;;;;;;;23.75;10.10;;;-1.00;71.30;;;;;;5055722;28;20044;-43
2021/12/29 11:40:58;;;;;;;20.45;10.60;;;-1.00;71.50;;;;;;5055471;28;20025;-43
2021/12/29 11:43:25;;;;;;;19.08;10.15;;;-1.00;71.30;;;;;;5056024;28;20358;-46
2021/12/29 11:45:52;;;;;;;21.02;10.15;;;-1.00;71.30;;;;;;5055176;28;20033;-47
2021/12/29 11:48:24;;;;;;;23.50;11.57;;;-1.00;71.50;;;;;;5055619;28;20052;-47
2021/12/29 11:51:00;;;;;;;22.70;11.20;;;-1.00;71.70;;;;;;5055165;28;20064;-43
2021/12/29 11:53:35;;;;;;;21.02;10.57;;;-1.00;71.50;;;;;;5055350;28;20475;-46
2021/12/29 11:56:21;;;;;;;20.88;9.55;;;-1.00;71.50;;;;;;5054729;28;20045;-46
2021/12/29 11:58:49;;;;;;;20.10;9.85;;;-0.90;71.50;;;;;;5055263;28;20040;-48
2021/12/29 12:01:17;;;;;;;20.70;10.80;;;-1.00;71.30;;;;;;5055116;28;20029;-44
2021/12/29 12:03:56;;;;;;;19.55;10.02;;;-1.00;71.40;;;;;;5055346;28;20409;-43
2021/12/29 12:06:58;;;;;;;33.40;14.68;;;-1.00;71.50;;;;;;5055153;28;20029;-45
2021/12/29 12:09:25;;;;;;;23.80;12.50;;;-0.90;71.80;;;;;;5054916;28;20053;-43
2021/12/29 12:12:02;;;;;;;20.98;9.60;;;-0.90;71.60;;;;;;5056948;28;20320;-44
2021/12/29 12:14:34;;;;;;;22.77;10.00;;;-0.90;71.40;;;;;;5059432;28;20037;-43
2021/12/29 12:17:31;;;;;;;23.10;10.98;;;-0.90;71.50;;;;;;5059505;28;20032;-43
2021/12/29 12:20:05;;;;;;;22.60;10.63;;;-1.00;71.30;;;;;;5058272;28;20041;-45
2021/12/29 12:22:41;;;;;;;21.42;11.57;;;-1.00;71.30;;;;;;5059223;28;20029;-44
2021/12/29 12:25:07;;;;;;;18.30;9.65;;;-1.00;71.30;;;;;;5059506;28;20087;-44
2021/12/29 12:27:39;;;;;;;19.90;10.43;;;-1.00;71.30;;;;;;5059574;28;20405;-44
2021/12/29 12:30:12;;;;;;;18.67;10.27;;;-1.00;71.10;;;;;;5059203;28;20297;-43
2021/12/29 12:32:49;;;;;;;23.42;10.50;;;-1.10;71.10;;;;;;5059274;28;20053;-43
2021/12/29 12:35:27;;;;;;;20.42;10.90;;;-1.10;71.20;;;;;;5059252;28;20330;-45
2021/12/29 12:37:52;;;;;;;15.90;7.72;;;-1.10;71.20;;;;;;5059144;28;20064;-43
2021/12/29 12:40:37;;;;;;;16.40;8.57;;;-1.10;71.20;;;;;;5059069;28;20069;-45
2021/12/29 12:43:06;;;;;;;21.30;10.40;;;-1.20;71.20;;;;;;5056549;28;20036;-43